Ubc Canada — 5BYX2 — position and weather

sailwx.info

Track history (hours):
 
Tides and Currents Weather Stations Pressure Air Temp Water Temp Dewpoint Dewpoint Depression Visibility Wind Speed Wind Dir Waves Ship Positions

Ubc Canada

Last reported at 2018-Apr-23 04:37 UTC. Time now 2018-Apr-24 10:32 UTC.
Position S 27°34' E 153°47'.

Length 132 m; draft 4.7 m.

Type: Cargo ship. MMSI: 212297000.

Date/timePositionNaut miles runAvg speedWind from/ knotsBaromVisibWave heightAir tempDewpointWater temp
2018-Apr-23 04:37S 27°34' E 153°47'410.7
2018-Apr-23 04:14S 27°38' E 153°47'410.7
2018-Apr-23 03:53S 27°42' E 153°47'410.7
2018-Apr-23 03:28S 27°46' E 153°48'510.7
2018-Apr-23 03:00S 27°51' E 153°48'510.7
2018-Apr-23 02:29S 27°56' E 153°48'510.5
2018-Apr-23 02:00S 28°01' E 153°48'510.3
2018-Apr-23 01:30S 28°07' E 153°49'510.5
2018-Apr-23 01:00S 28°12' E 153°50'510.3
2018-Apr-23 00:30S 28°17' E 153°52'510.4
2018-Apr-23 00:00S 28°22' E 153°52'510.4
2018-Apr-22 23:30S 28°27' E 153°52'510.5
2018-Apr-22 23:00S 28°32' E 153°52'245 9.3
2018-Apr-21 20:44S 32°31' E 152°46'4 8.8
2018-Apr-21 20:17S 32°34' E 152°43'2 8.7
2018-Apr-21 20:00S 32°36' E 152°42'4 8.6
2018-Apr-21 19:30S 32°40' E 152°39'4 8.8
2018-Apr-21 19:00S 32°43' E 152°36'5 9.2
2018-Apr-21 18:30S 32°47' E 152°32'510.7
2018-Apr-21 18:00S 32°51' E 152°29'611.3
2018-Apr-21 17:30S 32°56' E 152°25'611.7
2018-Apr-21 17:00S 33°00' E 152°21'611.6
2018-Apr-21 16:30S 33°05' E 152°16'611.6
2018-Apr-21 15:59S 33°10' E 152°12'3111.3
2018-Apr-21 13:13S 33°35' E 151°50'210.9
2018-Apr-21 13:00S 33°37' E 151°48'510.8
2018-Apr-21 12:30S 33°41' E 151°44'510.8
2018-Apr-21 12:00S 33°45' E 151°40'510.8
2018-Apr-21 11:30S 33°50' E 151°38'510.9
2018-Apr-21 11:00S 33°56' E 151°36'611.1
2018-Apr-21 10:30S 34°01' E 151°35'510.8
2018-Apr-21 10:00S 34°06' E 151°32'510.6
2018-Apr-21 09:30S 34°11' E 151°30'27511.2
2018-Apr-20 09:00S 38°21' E 149°07'2311.5
2018-Apr-20 07:00S 38°35' E 148°44'2911.2
2018-Apr-20 04:22S 38°48' E 148°10'3810.0
2018-Apr-20 00:36S 39°02' E 147°25'1111.0
2018-Apr-19 23:34S 39°06' E 147°11'211.1
2018-Apr-19 23:25S 39°07' E 147°09'4811.3
2018-Apr-19 19:13S 39°13' E 146°09'611.8
2018-Apr-19 18:44S 39°10' E 146°03'311.7
2018-Apr-19 18:28S 39°09' E 145°59'8111.0
2018-Apr-19 11:04S 38°19' E 144°36'112.9
2018-Apr-19 11:00S 38°18' E 144°37'  
2018-Apr-15 00:37S 33°49' E 151°39'110.7
2018-Apr-15 00:30S 33°48' E 151°39'510.1
2018-Apr-14 23:58S 33°43' E 151°43'39 9.8
2018-Apr-14 19:58S 33°11' E 152°11'5 9.8
2018-Apr-14 19:25S 33°07' E 152°14'410.0
2018-Apr-14 19:00S 33°04' E 152°17'610.1
2018-Apr-14 18:23S 32°59' E 152°22'410.2
2018-Apr-14 18:00S 32°56' E 152°25'510.6
2018-Apr-14 17:30S 32°51' E 152°28'611.2
2018-Apr-14 17:00S 32°47' E 152°32'611.2
2018-Apr-14 16:30S 32°42' E 152°36'611.9
2018-Apr-14 16:00S 32°38' E 152°41'813.5
2018-Apr-14 15:25S 32°31' E 152°46'1113.9
2018-Apr-14 14:39S 32°21' E 152°51'23014.1
2018-Apr-13 22:16S 28°37' E 153°53'713.6
2018-Apr-13 21:46S 28°31' E 153°52'413.5
2018-Apr-13 21:30S 28°27' E 153°52'713.4
2018-Apr-13 21:00S 28°20' E 153°52'713.4
2018-Apr-13 20:30S 28°14' E 153°52'713.1
2018-Apr-13 19:59S 28°07' E 153°51'613.0
2018-Apr-13 19:30S 28°01' E 153°51'613.0
2018-Apr-13 19:00S 27°54' E 153°51'  
Track history (hours):
 
Tides and Currents Weather Stations Pressure Air Temp Water Temp Dewpoint Dewpoint Depression Visibility Wind Speed Wind Dir Waves Ship Positions

Ubc Canada

Last reported at 2018-Apr-23 04:37 UTC. Time now 2018-Apr-24 10:32 UTC.
Position S 27°34' E 153°47'.

Length 132 m; draft 4.7 m.

Type: Cargo ship. MMSI: 212297000.

Date/timePositionNaut miles runAvg speedWind from/ knotsBaromVisibWave heightAir tempDewpointWater temp
2018-Apr-23 04:37S 27°34' E 153°47'410.7
2018-Apr-23 04:14S 27°38' E 153°47'410.7
2018-Apr-23 03:53S 27°42' E 153°47'410.7
2018-Apr-23 03:28S 27°46' E 153°48'510.7
2018-Apr-23 03:00S 27°51' E 153°48'510.7
2018-Apr-23 02:29S 27°56' E 153°48'510.5
2018-Apr-23 02:00S 28°01' E 153°48'510.3
2018-Apr-23 01:30S 28°07' E 153°49'510.5
2018-Apr-23 01:00S 28°12' E 153°50'510.3
2018-Apr-23 00:30S 28°17' E 153°52'510.4
2018-Apr-23 00:00S 28°22' E 153°52'510.4
2018-Apr-22 23:30S 28°27' E 153°52'510.5
2018-Apr-22 23:00S 28°32' E 153°52'245 9.3
2018-Apr-21 20:44S 32°31' E 152°46'4 8.8
2018-Apr-21 20:17S 32°34' E 152°43'2 8.7
2018-Apr-21 20:00S 32°36' E 152°42'4 8.6
2018-Apr-21 19:30S 32°40' E 152°39'4 8.8
2018-Apr-21 19:00S 32°43' E 152°36'5 9.2
2018-Apr-21 18:30S 32°47' E 152°32'510.7
2018-Apr-21 18:00S 32°51' E 152°29'611.3
2018-Apr-21 17:30S 32°56' E 152°25'611.7
2018-Apr-21 17:00S 33°00' E 152°21'611.6
2018-Apr-21 16:30S 33°05' E 152°16'611.6
2018-Apr-21 15:59S 33°10' E 152°12'3111.3
2018-Apr-21 13:13S 33°35' E 151°50'210.9
2018-Apr-21 13:00S 33°37' E 151°48'510.8
2018-Apr-21 12:30S 33°41' E 151°44'510.8
2018-Apr-21 12:00S 33°45' E 151°40'510.8
2018-Apr-21 11:30S 33°50' E 151°38'510.9
2018-Apr-21 11:00S 33°56' E 151°36'611.1
2018-Apr-21 10:30S 34°01' E 151°35'510.8
2018-Apr-21 10:00S 34°06' E 151°32'510.6
2018-Apr-21 09:30S 34°11' E 151°30'27511.2
2018-Apr-20 09:00S 38°21' E 149°07'2311.5
2018-Apr-20 07:00S 38°35' E 148°44'2911.2
2018-Apr-20 04:22S 38°48' E 148°10'3810.0
2018-Apr-20 00:36S 39°02' E 147°25'1111.0
2018-Apr-19 23:34S 39°06' E 147°11'211.1
2018-Apr-19 23:25S 39°07' E 147°09'4811.3
2018-Apr-19 19:13S 39°13' E 146°09'611.8
2018-Apr-19 18:44S 39°10' E 146°03'311.7
2018-Apr-19 18:28S 39°09' E 145°59'8111.0
2018-Apr-19 11:04S 38°19' E 144°36'112.9
2018-Apr-19 11:00S 38°18' E 144°37'  
2018-Apr-15 00:37S 33°49' E 151°39'110.7
2018-Apr-15 00:30S 33°48' E 151°39'510.1
2018-Apr-14 23:58S 33°43' E 151°43'39 9.8
2018-Apr-14 19:58S 33°11' E 152°11'5 9.8
2018-Apr-14 19:25S 33°07' E 152°14'410.0
2018-Apr-14 19:00S 33°04' E 152°17'610.1
2018-Apr-14 18:23S 32°59' E 152°22'410.2
2018-Apr-14 18:00S 32°56' E 152°25'510.6
2018-Apr-14 17:30S 32°51' E 152°28'611.2
2018-Apr-14 17:00S 32°47' E 152°32'611.2
2018-Apr-14 16:30S 32°42' E 152°36'611.9
2018-Apr-14 16:00S 32°38' E 152°41'813.5
2018-Apr-14 15:25S 32°31' E 152°46'1113.9
2018-Apr-14 14:39S 32°21' E 152°51'23014.1
2018-Apr-13 22:16S 28°37' E 153°53'713.6
2018-Apr-13 21:46S 28°31' E 153°52'413.5
2018-Apr-13 21:30S 28°27' E 153°52'713.4
2018-Apr-13 21:00S 28°20' E 153°52'713.4
2018-Apr-13 20:30S 28°14' E 153°52'713.1
2018-Apr-13 19:59S 28°07' E 153°51'613.0
2018-Apr-13 19:30S 28°01' E 153°51'613.0
2018-Apr-13 19:00S 27°54' E 153°51'  

Dump ship's entire track history